createdAt,value
2018-07-07T00:00:32.690Z,18.05
2018-07-07T00:03:00.387Z,17.98
2018-07-07T00:05:28.119Z,17.93
2018-07-07T00:07:55.854Z,17.91
2018-07-07T00:10:34.419Z,17.90
2018-07-07T00:13:02.288Z,17.89
2018-07-07T00:15:29.933Z,17.86
2018-07-07T00:17:57.671Z,17.78
2018-07-07T00:20:25.482Z,17.77
2018-07-07T00:22:53.158Z,17.72
2018-07-07T00:25:21.465Z,17.81
2018-07-07T00:27:50.008Z,17.83
2018-07-07T00:30:18.360Z,17.76
2018-07-07T00:32:46.189Z,17.80
2018-07-07T00:35:13.987Z,17.65
2018-07-07T00:37:41.746Z,17.57
2018-07-07T00:40:09.983Z,17.64
2018-07-07T00:42:38.609Z,17.58
2018-07-07T00:45:06.381Z,17.61
2018-07-07T00:47:34.078Z,17.55
2018-07-07T00:50:02.462Z,17.54
2018-07-07T00:52:30.358Z,17.43
2018-07-07T00:54:57.988Z,17.51
2018-07-07T00:57:25.806Z,17.46
2018-07-07T00:59:53.612Z,17.38
2018-07-07T01:02:22.537Z,17.39
2018-07-07T01:04:52.047Z,17.34
2018-07-07T01:07:20.215Z,17.38
2018-07-07T01:09:48.966Z,17.23
2018-07-07T01:12:16.990Z,17.34
2018-07-07T01:14:44.860Z,17.38
2018-07-07T01:17:12.545Z,17.36
2018-07-07T01:19:40.371Z,17.32
2018-07-07T01:22:10.321Z,17.47
2018-07-07T01:24:39.905Z,17.41
2018-07-07T01:27:07.850Z,17.39
2018-07-07T01:29:35.558Z,17.54
2018-07-07T01:32:04.230Z,17.68
2018-07-07T01:34:31.907Z,17.69
2018-07-07T01:36:59.582Z,17.73
2018-07-07T01:39:27.172Z,17.82
2018-07-07T01:41:54.795Z,17.86
2018-07-07T01:44:22.514Z,17.82
2018-07-07T01:46:50.138Z,17.75
2018-07-07T01:49:18.006Z,17.56
2018-07-07T01:51:45.614Z,17.53
2018-07-07T01:54:13.310Z,17.58
2018-07-07T01:56:41.117Z,17.49
2018-07-07T01:59:08.783Z,17.37
2018-07-07T02:01:36.571Z,17.44
2018-07-07T02:04:04.526Z,17.38
2018-07-07T02:06:32.226Z,17.44
2018-07-07T02:08:59.920Z,17.25
2018-07-07T02:11:27.612Z,17.37
2018-07-07T02:13:55.502Z,17.43
2018-07-07T02:16:35.705Z,17.38
2018-07-07T02:19:03.863Z,17.30
2018-07-07T02:21:31.642Z,17.31
2018-07-07T02:23:59.402Z,17.31
2018-07-07T02:26:27.188Z,17.26
2018-07-07T02:28:54.859Z,17.31
2018-07-07T02:31:22.565Z,17.43
2018-07-07T02:33:50.206Z,17.52
2018-07-07T02:36:17.938Z,17.52
2018-07-07T02:38:45.591Z,17.54
2018-07-07T02:41:13.390Z,17.41
2018-07-07T02:43:41.160Z,17.25
2018-07-07T02:46:08.837Z,17.32
2018-07-07T02:48:43.313Z,17.36
2018-07-07T02:51:11.026Z,17.25
2018-07-07T02:53:38.726Z,17.17
2018-07-07T02:56:06.674Z,17.11
2018-07-07T02:58:34.517Z,17.15
2018-07-07T03:01:02.181Z,17.11
2018-07-07T03:03:29.915Z,17.09
2018-07-07T03:05:57.606Z,16.99
2018-07-07T03:08:25.251Z,16.95
2018-07-07T03:10:52.968Z,16.94
2018-07-07T03:13:20.636Z,16.87
2018-07-07T03:15:48.354Z,16.92
2018-07-07T03:18:16.086Z,16.82
2018-07-07T03:20:43.865Z,16.83
2018-07-07T03:23:11.679Z,16.91
2018-07-07T03:25:39.367Z,16.95
2018-07-07T03:28:07.022Z,16.96
2018-07-07T03:30:34.718Z,16.92
2018-07-07T03:33:02.649Z,16.91
2018-07-07T03:35:30.396Z,16.86
2018-07-07T03:37:59.151Z,16.88
2018-07-07T03:40:26.731Z,16.91
2018-07-07T03:43:00.154Z,16.95
2018-07-07T03:45:27.853Z,16.94
2018-07-07T03:47:58.379Z,17.00
2018-07-07T03:50:27.322Z,17.01
2018-07-07T03:52:56.033Z,16.97
2018-07-07T03:55:23.689Z,16.97
2018-07-07T03:57:51.378Z,16.96
2018-07-07T04:00:19.010Z,16.95
2018-07-07T04:02:46.673Z,17.01
2018-07-07T04:05:15.430Z,17.05
2018-07-07T04:07:43.054Z,17.03
2018-07-07T04:10:33.683Z,17.04
2018-07-07T04:13:01.378Z,17.02
2018-07-07T04:15:29.373Z,17.06
2018-07-07T04:17:57.194Z,17.11
2018-07-07T04:20:25.708Z,17.21
2018-07-07T04:22:54.455Z,17.25
2018-07-07T04:25:22.242Z,17.24
2018-07-07T04:27:49.926Z,17.29
2018-07-07T04:30:17.559Z,17.31
2018-07-07T04:32:45.168Z,17.23
2018-07-07T04:35:12.924Z,17.27
2018-07-07T04:37:40.545Z,17.24
2018-07-07T04:40:08.210Z,17.25
2018-07-07T04:42:35.824Z,17.38
2018-07-07T04:45:03.630Z,17.35
2018-07-07T04:47:31.275Z,17.54
2018-07-07T04:49:59.005Z,17.47
2018-07-07T04:52:26.664Z,17.57
2018-07-07T04:54:54.315Z,17.64
2018-07-07T04:57:23.100Z,17.68
2018-07-07T04:59:50.771Z,17.50
2018-07-07T05:02:18.425Z,17.45
2018-07-07T05:04:46.122Z,17.52
2018-07-07T05:07:13.850Z,17.64
2018-07-07T05:09:41.469Z,17.73
2018-07-07T05:12:09.086Z,18.07
2018-07-07T05:14:36.703Z,18.31
2018-07-07T05:17:04.553Z,18.23
2018-07-07T05:19:32.258Z,18.27
2018-07-07T05:21:59.990Z,18.30
2018-07-07T05:24:27.609Z,18.63
2018-07-07T05:26:55.206Z,18.60
2018-07-07T05:31:23.210Z,18.84
2018-07-07T05:33:51.292Z,18.79
2018-07-07T05:36:19.030Z,18.67
2018-07-07T05:38:46.689Z,18.69
2018-07-07T05:41:14.383Z,18.76
2018-07-07T05:43:42.965Z,18.89
2018-07-07T05:46:12.093Z,19.20
2018-07-07T05:48:41.583Z,19.50
2018-07-07T05:51:09.297Z,19.42
2018-07-07T05:53:36.975Z,19.95
2018-07-07T05:56:04.832Z,20.13
2018-07-07T05:58:32.563Z,19.91
2018-07-07T06:01:00.272Z,19.98
2018-07-07T06:03:28.070Z,20.19
2018-07-07T06:05:55.812Z,20.47
2018-07-07T06:08:23.464Z,20.77
2018-07-07T06:10:51.495Z,21.08
2018-07-07T06:13:19.334Z,21.11
2018-07-07T06:15:47.035Z,21.24
2018-07-07T06:18:14.747Z,20.84
2018-07-07T06:20:42.469Z,21.08
2018-07-07T06:23:10.183Z,22.17
2018-07-07T06:25:37.844Z,21.70
2018-07-07T06:28:05.555Z,21.01
2018-07-07T06:30:33.231Z,21.52
2018-07-07T06:33:01.012Z,22.20
2018-07-07T06:35:29.019Z,21.94
2018-07-07T06:37:56.734Z,22.36
2018-07-07T06:40:24.448Z,22.37
2018-07-07T06:42:52.264Z,22.57
2018-07-07T06:45:19.999Z,22.36
2018-07-07T06:47:47.673Z,22.32
2018-07-07T06:50:15.420Z,22.28
2018-07-07T06:52:43.114Z,23.12
2018-07-07T06:55:10.915Z,23.30
2018-07-07T06:57:38.603Z,23.34
2018-07-07T07:00:06.348Z,23.85
2018-07-07T07:02:34.013Z,23.22
2018-07-07T07:05:01.808Z,23.87
2018-07-07T07:07:29.540Z,23.24
2018-07-07T07:09:57.195Z,24.05
2018-07-07T07:12:24.868Z,24.46
2018-07-07T07:14:52.811Z,24.10
2018-07-07T07:17:20.499Z,24.44
2018-07-07T07:19:48.163Z,24.61
2018-07-07T07:22:15.820Z,24.32
2018-07-07T07:24:43.507Z,24.88
2018-07-07T07:27:11.228Z,24.77
2018-07-07T07:29:39.027Z,24.45
2018-07-07T07:32:06.723Z,24.92
2018-07-07T07:34:34.485Z,25.27
2018-07-07T07:37:02.516Z,25.22
2018-07-07T07:39:30.188Z,25.65
2018-07-07T07:41:57.860Z,26.01
2018-07-07T07:44:25.541Z,25.55
2018-07-07T07:46:53.243Z,26.21
2018-07-07T07:49:20.900Z,26.59
2018-07-07T07:51:48.594Z,26.90
2018-07-07T07:54:16.334Z,27.16
2018-07-07T07:56:44.023Z,27.27
2018-07-07T07:59:11.664Z,27.34
2018-07-07T08:01:39.304Z,27.44
2018-07-07T08:04:06.981Z,27.25
2018-07-07T08:06:34.647Z,27.58
2018-07-07T08:09:02.538Z,27.72
2018-07-07T08:11:30.336Z,27.74
2018-07-07T08:13:58.055Z,27.50
2018-07-07T08:16:25.735Z,27.10
2018-07-07T08:18:53.479Z,27.58
2018-07-07T08:21:21.248Z,27.65
2018-07-07T08:23:48.919Z,27.49
2018-07-07T08:26:16.682Z,27.93
2018-07-07T08:28:44.343Z,28.01
2018-07-07T08:31:12.008Z,27.80
2018-07-07T08:33:39.960Z,28.22
2018-07-07T08:36:07.628Z,28.44
2018-07-07T08:38:35.352Z,28.36
2018-07-07T08:41:03.185Z,28.40
2018-07-07T08:43:30.964Z,28.60
2018-07-07T08:45:58.712Z,28.29
2018-07-07T08:48:26.399Z,28.59
2018-07-07T08:50:54.207Z,28.76
2018-07-07T08:53:21.870Z,28.25
2018-07-07T08:55:49.532Z,28.28
2018-07-07T08:58:30.165Z,28.44
2018-07-07T09:00:57.848Z,28.38
2018-07-07T09:03:25.505Z,28.55
2018-07-07T09:05:53.170Z,28.69
2018-07-07T09:08:20.836Z,28.83
2018-07-07T09:10:48.550Z,28.54
2018-07-07T09:13:16.219Z,28.65
2018-07-07T09:15:43.879Z,29.09
2018-07-07T09:18:11.528Z,29.33
2018-07-07T09:20:39.190Z,29.53
2018-07-07T09:23:06.868Z,29.47
2018-07-07T09:25:34.548Z,29.59
2018-07-07T09:28:02.227Z,29.68
2018-07-07T09:30:29.929Z,29.82
2018-07-07T09:32:57.597Z,29.93
2018-07-07T09:35:25.267Z,30.01
2018-07-07T09:37:52.963Z,29.87
2018-07-07T09:40:20.784Z,29.90
2018-07-07T09:42:48.507Z,29.90
2018-07-07T09:45:16.252Z,29.95
2018-07-07T09:47:43.942Z,30.23
2018-07-07T09:50:11.599Z,30.15
2018-07-07T09:52:39.282Z,29.88
2018-07-07T09:55:06.955Z,29.65
2018-07-07T09:57:34.651Z,30.03
2018-07-07T10:00:02.344Z,30.13
2018-07-07T10:02:30.189Z,29.92
2018-07-07T10:04:57.839Z,29.87
2018-07-07T10:07:25.569Z,30.06
2018-07-07T10:09:53.223Z,30.58
2018-07-07T10:12:20.879Z,30.46
2018-07-07T10:14:48.523Z,30.59
2018-07-07T10:17:16.239Z,30.41
2018-07-07T10:19:43.961Z,30.59
2018-07-07T10:22:11.620Z,30.63
2018-07-07T10:24:39.255Z,30.73
2018-07-07T10:27:06.932Z,30.60
2018-07-07T10:29:34.579Z,30.76
2018-07-07T10:32:02.243Z,30.89
2018-07-07T10:34:29.915Z,30.93
2018-07-07T10:36:57.608Z,31.13
2018-07-07T10:39:25.306Z,31.14
2018-07-07T10:41:53.012Z,31.27
2018-07-07T10:44:20.683Z,30.87
2018-07-07T10:46:48.632Z,30.61
2018-07-07T10:49:16.315Z,30.43
2018-07-07T10:51:43.999Z,30.42
2018-07-07T10:54:11.727Z,30.56
2018-07-07T10:56:39.406Z,30.82
2018-07-07T10:59:07.096Z,30.39
2018-07-07T11:01:34.772Z,30.61
2018-07-07T11:04:02.456Z,30.78
2018-07-07T11:06:30.115Z,30.68
2018-07-07T11:08:57.786Z,30.62
2018-07-07T11:11:25.464Z,30.51
2018-07-07T11:13:53.468Z,30.40
2018-07-07T11:16:21.491Z,30.09
2018-07-07T11:18:49.134Z,30.13
2018-07-07T11:21:16.835Z,30.45
2018-07-07T11:23:44.739Z,30.77
2018-07-07T11:26:12.515Z,30.82
2018-07-07T11:28:40.154Z,30.51
2018-07-07T11:31:07.830Z,30.84
2018-07-07T11:33:35.537Z,30.58
2018-07-07T11:36:03.238Z,30.73
2018-07-07T11:38:30.942Z,30.96
2018-07-07T11:40:58.621Z,31.04
2018-07-07T11:43:26.746Z,31.23
2018-07-07T11:45:54.755Z,31.40
2018-07-07T11:48:22.558Z,31.40
2018-07-07T11:50:50.252Z,31.21
2018-07-07T11:53:18.003Z,31.32
2018-07-07T11:55:45.700Z,31.11
2018-07-07T11:58:13.409Z,30.92
2018-07-07T12:00:41.166Z,31.09
2018-07-07T12:03:08.870Z,31.46
2018-07-07T12:05:36.606Z,31.36
2018-07-07T12:08:13.873Z,31.50
2018-07-07T12:10:35.369Z,31.82
2018-07-07T12:13:03.093Z,32.53
2018-07-07T12:15:30.724Z,32.27
2018-07-07T12:17:58.350Z,32.51
2018-07-07T12:20:26.120Z,32.68
2018-07-07T12:22:53.752Z,33.23
2018-07-07T12:25:21.492Z,33.18
2018-07-07T12:27:49.140Z,33.28
2018-07-07T12:30:16.824Z,32.81
2018-07-07T12:32:44.454Z,32.12
2018-07-07T12:35:12.147Z,32.13
2018-07-07T12:37:39.854Z,32.21
2018-07-07T12:40:07.510Z,32.85
2018-07-07T12:42:35.254Z,33.14
2018-07-07T12:45:03.046Z,32.70
2018-07-07T12:47:30.756Z,32.79
2018-07-07T12:49:58.426Z,32.85
2018-07-07T12:52:26.118Z,31.93
2018-07-07T12:54:53.846Z,31.69
2018-07-07T12:57:21.528Z,31.81
2018-07-07T12:59:49.146Z,32.19
2018-07-07T13:02:16.856Z,32.45
2018-07-07T13:04:44.490Z,32.87
2018-07-07T13:07:12.163Z,32.86
2018-07-07T13:09:39.798Z,32.53
2018-07-07T13:12:07.443Z,32.48
2018-07-07T13:14:35.093Z,33.02
2018-07-07T13:17:02.827Z,33.26
2018-07-07T13:19:30.478Z,33.16
2018-07-07T13:21:58.114Z,32.94
2018-07-07T13:24:25.746Z,33.09
2018-07-07T13:26:53.569Z,33.63
2018-07-07T13:29:21.205Z,33.49
2018-07-07T13:31:48.845Z,33.46
2018-07-07T13:34:16.530Z,33.47
2018-07-07T13:36:44.146Z,33.78
2018-07-07T13:39:12.023Z,33.35
2018-07-07T13:41:39.730Z,33.29
2018-07-07T13:44:07.362Z,33.50
2018-07-07T13:46:35.096Z,33.47
2018-07-07T13:49:02.865Z,33.46
2018-07-07T13:51:30.652Z,33.41
2018-07-07T13:53:58.418Z,33.30
2018-07-07T13:56:26.032Z,33.27
2018-07-07T13:58:53.670Z,33.12
2018-07-07T14:01:21.273Z,32.66
2018-07-07T14:03:48.910Z,32.67
2018-07-07T14:06:16.534Z,32.77
2018-07-07T14:08:44.216Z,32.58
2018-07-07T14:11:11.836Z,32.75
2018-07-07T14:13:39.503Z,32.81
2018-07-07T14:16:07.141Z,32.86
2018-07-07T14:18:34.746Z,32.94
2018-07-07T14:21:02.367Z,32.82
2018-07-07T14:23:30.118Z,32.50
2018-07-07T14:25:58.007Z,32.54
2018-07-07T14:28:25.650Z,32.46
2018-07-07T14:30:53.404Z,32.54
2018-07-07T14:33:21.109Z,32.41
2018-07-07T14:35:48.731Z,32.45
2018-07-07T14:38:16.508Z,32.52
2018-07-07T14:41:02.378Z,32.40
2018-07-07T14:43:50.838Z,32.47
2018-07-07T14:46:18.503Z,32.29
2018-07-07T14:48:46.142Z,32.34
2018-07-07T14:51:13.869Z,32.48
2018-07-07T14:53:41.578Z,32.55
2018-07-07T14:56:09.258Z,32.37
2018-07-07T14:58:36.880Z,32.30
2018-07-07T15:01:04.584Z,32.57
2018-07-07T15:03:32.282Z,32.27
2018-07-07T15:06:00.024Z,32.39
2018-07-07T15:08:27.671Z,32.51
2018-07-07T15:10:55.310Z,32.50
2018-07-07T15:13:22.974Z,32.29
2018-07-07T15:15:50.623Z,31.92
2018-07-07T15:18:18.251Z,31.82
2018-07-07T15:20:45.863Z,32.10
2018-07-07T15:23:13.470Z,32.22
2018-07-07T15:25:41.181Z,32.19
2018-07-07T15:28:08.810Z,32.19
2018-07-07T15:30:36.519Z,32.17
2018-07-07T15:33:04.231Z,32.20
2018-07-07T15:35:31.938Z,32.14
2018-07-07T15:37:59.589Z,32.03
2018-07-07T15:40:27.199Z,32.10
2018-07-07T15:42:54.930Z,32.15
2018-07-07T15:45:22.591Z,31.77
2018-07-07T15:47:50.214Z,31.86
2018-07-07T15:50:17.923Z,31.87
2018-07-07T15:52:45.629Z,31.85
2018-07-07T15:55:13.395Z,31.73
2018-07-07T16:00:39.630Z,31.75
2018-07-07T16:03:07.371Z,31.44
2018-07-07T16:05:35.014Z,31.43
2018-07-07T16:08:02.649Z,31.27
2018-07-07T16:10:34.770Z,31.34
2018-07-07T16:13:02.437Z,31.38
2018-07-07T16:15:30.062Z,31.41
2018-07-07T16:17:57.822Z,31.28
2018-07-07T16:20:25.463Z,31.23
2018-07-07T16:22:53.211Z,30.81
2018-07-07T16:25:20.817Z,30.77
2018-07-07T16:27:48.429Z,30.76
2018-07-07T16:30:16.039Z,30.66
2018-07-07T16:32:43.683Z,30.58
2018-07-07T16:35:11.421Z,30.52
2018-07-07T16:37:39.160Z,30.49
2018-07-07T16:40:06.802Z,30.54
2018-07-07T16:42:36.011Z,30.50
2018-07-07T16:45:03.830Z,30.46
2018-07-07T16:47:31.622Z,30.27
2018-07-07T16:49:59.318Z,30.33
2018-07-07T16:52:27.446Z,30.10
2018-07-07T16:54:55.193Z,30.02
2018-07-07T16:57:23.698Z,29.86
2018-07-07T16:59:51.370Z,29.79
2018-07-07T17:02:19.162Z,29.84
2018-07-07T17:04:46.861Z,29.79
2018-07-07T17:07:14.531Z,29.80
2018-07-07T17:09:42.386Z,29.65
2018-07-07T17:12:10.159Z,29.69
2018-07-07T17:14:37.975Z,29.55
2018-07-07T17:17:05.693Z,29.52
2018-07-07T17:19:34.028Z,29.49
2018-07-07T17:22:01.695Z,29.44
2018-07-07T17:24:30.383Z,29.38
2018-07-07T17:26:58.438Z,29.27
2018-07-07T17:29:26.586Z,29.14
2018-07-07T17:31:54.237Z,28.99
2018-07-07T17:34:21.954Z,29.00
2018-07-07T17:36:50.097Z,28.99
2018-07-07T17:39:18.215Z,29.04
2018-07-07T17:41:46.479Z,29.00
2018-07-07T17:44:14.161Z,28.90
2018-07-07T17:46:41.936Z,28.79
2018-07-07T17:49:09.742Z,28.96
2018-07-07T17:51:37.382Z,28.80
2018-07-07T17:54:05.135Z,28.73
2018-07-07T17:56:32.795Z,28.70
2018-07-07T17:59:01.303Z,28.63
2018-07-07T18:01:29.026Z,28.62
2018-07-07T18:03:57.066Z,28.53
2018-07-07T18:06:24.750Z,28.46
2018-07-07T18:08:52.350Z,28.35
2018-07-07T18:11:20.098Z,28.08
2018-07-07T18:13:47.769Z,28.12
2018-07-07T18:16:15.425Z,28.11
2018-07-07T18:18:43.087Z,28.12
2018-07-07T18:21:10.847Z,28.21
2018-07-07T18:23:38.478Z,28.19
2018-07-07T18:26:06.202Z,28.13
2018-07-07T18:28:33.851Z,28.06
2018-07-07T18:31:02.977Z,27.88
2018-07-07T18:33:30.503Z,27.96
2018-07-07T18:35:58.122Z,27.93
2018-07-07T18:38:25.849Z,27.84
2018-07-07T18:40:53.715Z,27.83
2018-07-07T18:43:21.339Z,27.76
2018-07-07T18:45:48.953Z,27.80
2018-07-07T18:48:16.563Z,27.65
2018-07-07T18:50:44.179Z,27.58
2018-07-07T18:53:11.901Z,27.53
2018-07-07T18:55:39.498Z,27.46
2018-07-07T18:58:07.170Z,27.45
2018-07-07T19:00:34.815Z,27.43
2018-07-07T19:03:02.460Z,27.42
2018-07-07T19:05:30.150Z,27.27
2018-07-07T19:07:57.874Z,27.19
2018-07-07T19:10:34.248Z,27.16
2018-07-07T19:13:01.930Z,27.03
2018-07-07T19:15:29.709Z,26.97
2018-07-07T19:17:57.339Z,26.92
2018-07-07T19:20:30.650Z,26.84
2018-07-07T19:23:04.056Z,26.78
2018-07-07T19:25:37.652Z,26.66
2018-07-07T19:28:05.439Z,26.57
2018-07-07T19:30:33.143Z,26.48
2018-07-07T19:33:06.629Z,26.41
2018-07-07T19:35:40.033Z,26.28
2018-07-07T19:38:07.794Z,26.25
2018-07-07T19:40:35.533Z,26.15
2018-07-07T19:43:03.229Z,26.08
2018-07-07T19:45:30.902Z,26.03
2018-07-07T19:47:58.640Z,25.95
2018-07-07T19:50:27.350Z,25.89
2018-07-07T19:52:54.989Z,25.84
2018-07-07T19:55:22.663Z,25.77
2018-07-07T19:57:51.085Z,25.74
2018-07-07T20:00:18.815Z,25.68
2018-07-07T20:02:46.468Z,25.61
2018-07-07T20:05:14.119Z,25.57
2018-07-07T20:07:41.841Z,25.45
2018-07-07T20:10:33.173Z,25.41
2018-07-07T20:13:00.881Z,25.38
2018-07-07T20:15:40.342Z,25.03
2018-07-07T20:18:07.906Z,24.82
2018-07-07T20:20:41.534Z,24.95
2018-07-07T20:23:16.390Z,24.87
2018-07-07T20:25:50.219Z,24.74
2018-07-07T20:28:23.796Z,24.72
2018-07-07T20:30:51.491Z,24.64
2018-07-07T20:33:19.175Z,24.53
2018-07-07T20:35:46.900Z,24.55
2018-07-07T20:38:14.616Z,24.52
2018-07-07T20:40:42.227Z,24.47
2018-07-07T20:43:09.866Z,24.32
2018-07-07T20:45:37.548Z,24.33
2018-07-07T20:48:05.224Z,24.27
2018-07-07T20:50:32.977Z,24.06
2018-07-07T20:53:00.581Z,24.01
2018-07-07T20:55:28.325Z,24.10
2018-07-07T20:57:56.053Z,23.97
2018-07-07T21:00:23.678Z,23.95
2018-07-07T21:02:51.386Z,23.90
2018-07-07T21:05:19.026Z,23.87
2018-07-07T21:07:46.738Z,23.65
2018-07-07T21:10:34.188Z,23.63
2018-07-07T21:13:01.981Z,23.54
2018-07-07T21:15:29.593Z,23.56
2018-07-07T21:17:57.350Z,23.37
2018-07-07T21:20:24.931Z,23.41
2018-07-07T21:22:52.630Z,23.52
2018-07-07T21:25:20.268Z,23.52
2018-07-07T21:27:47.945Z,23.47
2018-07-07T21:30:15.584Z,23.40
2018-07-07T21:32:43.173Z,23.28
2018-07-07T21:35:10.831Z,23.24
2018-07-07T21:37:38.474Z,23.25
2018-07-07T21:40:06.342Z,23.24
2018-07-07T21:42:33.957Z,23.21
2018-07-07T21:45:01.656Z,22.96
2018-07-07T21:47:30.338Z,22.93
2018-07-07T21:49:57.966Z,22.90
2018-07-07T21:52:25.773Z,22.98
2018-07-07T21:54:53.493Z,23.01
2018-07-07T21:57:27.010Z,23.04
2018-07-07T21:59:54.667Z,22.73
2018-07-07T22:02:28.062Z,22.79
2018-07-07T22:05:01.448Z,22.79
2018-07-07T22:07:34.887Z,22.83
2018-07-07T22:10:03.054Z,22.84
2018-07-07T22:12:30.798Z,22.84
2018-07-07T22:14:58.443Z,22.79
2018-07-07T22:17:26.071Z,22.82
2018-07-07T22:19:54.462Z,22.76
2018-07-07T22:22:22.111Z,22.52
2018-07-07T22:24:50.022Z,22.59
2018-07-07T22:27:17.658Z,22.65
2018-07-07T22:29:45.311Z,22.65
2018-07-07T22:32:19.560Z,22.64
2018-07-07T22:34:47.269Z,22.65
2018-07-07T22:37:14.989Z,22.65
2018-07-07T22:39:43.402Z,22.59
2018-07-07T22:42:12.152Z,22.53
2018-07-07T22:44:40.761Z,22.47
2018-07-07T22:47:08.439Z,22.46
2018-07-07T22:49:36.162Z,22.42
2018-07-07T22:52:05.158Z,22.35
2018-07-07T22:54:32.889Z,22.30
2018-07-07T22:57:00.629Z,22.29
2018-07-07T22:59:28.409Z,22.23
2018-07-07T23:01:56.079Z,22.19
2018-07-07T23:04:23.772Z,22.15
2018-07-07T23:06:51.519Z,22.10
2018-07-07T23:11:46.642Z,22.04
2018-07-07T23:14:14.250Z,22.00
2018-07-07T23:16:42.004Z,21.97
2018-07-07T23:19:09.658Z,21.87
2018-07-07T23:21:37.395Z,21.86
2018-07-07T23:24:05.281Z,21.83
2018-07-07T23:26:32.855Z,21.75
2018-07-07T23:29:01.394Z,21.74
2018-07-07T23:31:29.194Z,21.61
2018-07-07T23:33:56.882Z,21.62
2018-07-07T23:36:24.518Z,21.64
2018-07-07T23:38:52.166Z,21.56
2018-07-07T23:41:19.855Z,21.53
2018-07-07T23:43:47.585Z,21.49
2018-07-07T23:46:15.168Z,21.53
2018-07-07T23:48:42.843Z,21.48
2018-07-07T23:51:10.592Z,21.38
2018-07-07T23:53:38.569Z,21.32
2018-07-07T23:56:06.644Z,21.34
2018-07-07T23:58:34.285Z,21.33
